sensor_id;sensor_type;location;lat;lon;timestamp;P1;durP1;ratioP1;P2;durP2;ratioP2
66626;SDS011;53498;50.422;14.912;2023-04-06T09:37:27;4.28;;;3.17;;
66626;SDS011;53498;50.422;14.912;2023-04-06T09:40:01;5.97;;;2.35;;
66626;SDS011;53498;50.422;14.912;2023-04-06T09:42:28;4.28;;;2.47;;
66626;SDS011;53498;50.422;14.912;2023-04-06T09:44:54;4.72;;;2.45;;
66626;SDS011;53498;50.422;14.912;2023-04-06T09:47:20;4.15;;;2.30;;
66626;SDS011;53498;50.422;14.912;2023-04-06T09:49:48;4.40;;;2.42;;
66626;SDS011;53498;50.422;14.912;2023-04-06T09:52:15;2.20;;;1.88;;
66626;SDS011;53498;50.422;14.912;2023-04-06T09:54:43;3.92;;;2.20;;
66626;SDS011;53498;50.422;14.912;2023-04-06T10:08:00;4.22;;;2.05;;
66626;SDS011;53498;50.422;14.912;2023-04-06T10:10:32;2.30;;;1.90;;
66626;SDS011;53498;50.422;14.912;2023-04-06T10:13:00;2.42;;;1.92;;
66626;SDS011;53498;50.422;14.912;2023-04-06T10:15:27;2.63;;;1.77;;
66626;SDS011;53498;50.422;14.912;2023-04-06T10:17:55;5.38;;;2.72;;
66626;SDS011;53498;50.422;14.912;2023-04-06T10:25:36;2.58;;;1.90;;
66626;SDS011;53498;50.422;14.912;2023-04-06T10:28:07;4.03;;;1.92;;
66626;SDS011;53498;50.422;14.912;2023-04-06T10:30:41;3.25;;;1.77;;
66626;SDS011;53498;50.422;14.912;2023-04-06T10:33:14;3.10;;;1.90;;
66626;SDS011;53498;50.422;14.912;2023-04-06T10:35:41;2.67;;;1.75;;
66626;SDS011;53498;50.422;14.912;2023-04-06T10:38:07;2.22;;;2.03;;
66626;SDS011;53498;50.422;14.912;2023-04-06T10:40:35;3.30;;;1.50;;
66626;SDS011;53498;50.422;14.912;2023-04-06T10:43:07;2.70;;;1.73;;
66626;SDS011;53498;50.422;14.912;2023-04-06T10:45:34;3.22;;;2.15;;
66626;SDS011;53498;50.422;14.912;2023-04-06T10:48:01;4.10;;;1.70;;
66626;SDS011;53498;50.422;14.912;2023-04-06T10:50:44;2.22;;;2.00;;
66626;SDS011;53498;50.422;14.912;2023-04-06T10:53:19;4.22;;;2.15;;
66626;SDS011;53498;50.422;14.912;2023-04-06T10:58:12;2.60;;;2.38;;
66626;SDS011;53498;50.422;14.912;2023-04-06T11:00:43;3.60;;;2.20;;
66626;SDS011;53498;50.422;14.912;2023-04-06T11:03:13;3.47;;;2.03;;
66626;SDS011;53498;50.422;14.912;2023-04-06T11:05:43;2.95;;;1.70;;
66626;SDS011;53498;50.422;14.912;2023-04-06T11:08:29;2.30;;;2.10;;
66626;SDS011;53498;50.422;14.912;2023-04-06T11:11:06;4.00;;;2.17;;
66626;SDS011;53498;50.422;14.912;2023-04-06T11:16:34;2.83;;;2.15;;
66626;SDS011;53498;50.422;14.912;2023-04-06T11:19:01;2.83;;;1.90;;
66626;SDS011;53498;50.422;14.912;2023-04-06T11:21:41;3.45;;;2.30;;
66626;SDS011;53498;50.422;14.912;2023-04-06T11:24:15;2.70;;;2.00;;
66626;SDS011;53498;50.422;14.912;2023-04-06T11:26:49;2.70;;;1.98;;
66626;SDS011;53498;50.422;14.912;2023-04-06T11:29:23;2.78;;;2.20;;
66626;SDS011;53498;50.422;14.912;2023-04-06T11:32:01;2.78;;;2.15;;
66626;SDS011;53498;50.422;14.912;2023-04-06T11:34:29;2.42;;;1.70;;
66626;SDS011;53498;50.422;14.912;2023-04-06T11:37:03;1.58;;;1.40;;
66626;SDS011;53498;50.422;14.912;2023-04-06T11:39:37;2.17;;;1.60;;
66626;SDS011;53498;50.422;14.912;2023-04-06T11:42:05;1.75;;;1.60;;
66626;SDS011;53498;50.422;14.912;2023-04-06T11:47:05;2.22;;;1.67;;
66626;SDS011;53498;50.422;14.912;2023-04-06T11:49:32;2.08;;;1.67;;
66626;SDS011;53498;50.422;14.912;2023-04-06T11:52:01;3.50;;;2.08;;
66626;SDS011;53498;50.422;14.912;2023-04-06T11:56:56;3.17;;;1.70;;
66626;SDS011;53498;50.422;14.912;2023-04-06T11:59:22;2.95;;;1.85;;
66626;SDS011;53498;50.422;14.912;2023-04-06T12:01:48;2.35;;;1.33;;
66626;SDS011;53498;50.422;14.912;2023-04-06T12:04:14;1.70;;;1.35;;
66626;SDS011;53498;50.422;14.912;2023-04-06T12:06:39;2.60;;;1.50;;
66626;SDS011;53498;50.422;14.912;2023-04-06T12:09:05;3.28;;;1.65;;
66626;SDS011;53498;50.422;14.912;2023-04-06T12:11:31;3.92;;;1.80;;
66626;SDS011;53498;50.422;14.912;2023-04-06T12:13:57;2.20;;;1.58;;
66626;SDS011;53498;50.422;14.912;2023-04-06T12:16:24;2.55;;;1.92;;
66626;SDS011;53498;50.422;14.912;2023-04-06T12:18:50;3.58;;;1.65;;
66626;SDS011;53498;50.422;14.912;2023-04-06T12:21:16;3.22;;;1.63;;
66626;SDS011;53498;50.422;14.912;2023-04-06T12:23:42;4.85;;;2.13;;
66626;SDS011;53498;50.422;14.912;2023-04-06T12:26:07;2.88;;;1.90;;
66626;SDS011;53498;50.422;14.912;2023-04-06T12:28:33;2.45;;;2.25;;
66626;SDS011;53498;50.422;14.912;2023-04-06T12:30:59;3.40;;;2.22;;
66626;SDS011;53498;50.422;14.912;2023-04-06T12:33:25;2.72;;;2.20;;
66626;SDS011;53498;50.422;14.912;2023-04-06T12:35:50;3.40;;;2.30;;
66626;SDS011;53498;50.422;14.912;2023-04-06T12:38:16;4.28;;;2.30;;
66626;SDS011;53498;50.422;14.912;2023-04-06T12:40:42;2.28;;;1.75;;
66626;SDS011;53498;50.422;14.912;2023-04-06T12:43:07;2.20;;;1.95;;
66626;SDS011;53498;50.422;14.912;2023-04-06T12:45:34;3.58;;;1.85;;
66626;SDS011;53498;50.422;14.912;2023-04-06T12:47:59;5.13;;;2.05;;
66626;SDS011;53498;50.422;14.912;2023-04-06T12:50:25;2.75;;;1.92;;
66626;SDS011;53498;50.422;14.912;2023-04-06T12:52:51;2.22;;;1.65;;
66626;SDS011;53498;50.422;14.912;2023-04-06T12:55:17;3.38;;;2.00;;
66626;SDS011;53498;50.422;14.912;2023-04-06T12:57:44;2.15;;;1.90;;
66626;SDS011;53498;50.422;14.912;2023-04-06T13:00:10;3.63;;;2.10;;
66626;SDS011;53498;50.422;14.912;2023-04-06T13:02:36;5.50;;;2.38;;
66626;SDS011;53498;50.422;14.912;2023-04-06T13:05:02;2.80;;;2.35;;
66626;SDS011;53498;50.422;14.912;2023-04-06T13:07:28;3.40;;;1.85;;
66626;SDS011;53498;50.422;14.912;2023-04-06T13:09:53;3.05;;;2.03;;
66626;SDS011;53498;50.422;14.912;2023-04-06T13:12:19;2.78;;;2.08;;
66626;SDS011;53498;50.422;14.912;2023-04-06T13:14:44;4.13;;;2.00;;
66626;SDS011;53498;50.422;14.912;2023-04-06T13:17:16;3.58;;;2.10;;
66626;SDS011;53498;50.422;14.912;2023-04-06T13:19:42;4.13;;;2.13;;
66626;SDS011;53498;50.422;14.912;2023-04-06T13:22:08;2.60;;;2.03;;
66626;SDS011;53498;50.422;14.912;2023-04-06T13:24:37;2.78;;;2.10;;
66626;SDS011;53498;50.422;14.912;2023-04-06T13:27:03;6.20;;;2.30;;
66626;SDS011;53498;50.422;14.912;2023-04-06T13:29:28;3.42;;;1.98;;
66626;SDS011;53498;50.422;14.912;2023-04-06T13:31:54;2.33;;;2.00;;
66626;SDS011;53498;50.422;14.912;2023-04-06T13:34:19;3.58;;;2.60;;
66626;SDS011;53498;50.422;14.912;2023-04-06T13:36:45;2.88;;;2.22;;
66626;SDS011;53498;50.422;14.912;2023-04-06T13:39:11;2.67;;;2.17;;
66626;SDS011;53498;50.422;14.912;2023-04-06T13:41:36;3.17;;;2.05;;
66626;SDS011;53498;50.422;14.912;2023-04-06T13:44:02;4.00;;;1.73;;
66626;SDS011;53498;50.422;14.912;2023-04-06T13:46:27;2.30;;;2.10;;
66626;SDS011;53498;50.422;14.912;2023-04-06T13:48:53;2.72;;;2.15;;
66626;SDS011;53498;50.422;14.912;2023-04-06T13:51:19;3.25;;;2.30;;
66626;SDS011;53498;50.422;14.912;2023-04-06T13:53:44;3.15;;;1.92;;
66626;SDS011;53498;50.422;14.912;2023-04-06T13:56:10;2.47;;;2.28;;
66626;SDS011;53498;50.422;14.912;2023-04-06T13:58:36;2.38;;;2.17;;
66626;SDS011;53498;50.422;14.912;2023-04-06T14:01:05;4.05;;;2.22;;
66626;SDS011;53498;50.422;14.912;2023-04-06T14:03:32;2.63;;;2.10;;
66626;SDS011;53498;50.422;14.912;2023-04-06T14:05:58;2.10;;;1.90;;
66626;SDS011;53498;50.422;14.912;2023-04-06T14:08:24;3.08;;;2.40;;
66626;SDS011;53498;50.422;14.912;2023-04-06T14:10:50;3.63;;;2.47;;
66626;SDS011;53498;50.422;14.912;2023-04-06T14:13:16;3.08;;;2.15;;
66626;SDS011;53498;50.422;14.912;2023-04-06T14:15:42;5.25;;;2.45;;
66626;SDS011;53498;50.422;14.912;2023-04-06T14:18:08;4.72;;;2.50;;
66626;SDS011;53498;50.422;14.912;2023-04-06T14:20:34;4.05;;;2.20;;
66626;SDS011;53498;50.422;14.912;2023-04-06T14:23:00;3.25;;;2.33;;
66626;SDS011;53498;50.422;14.912;2023-04-06T14:25:27;3.50;;;2.17;;
66626;SDS011;53498;50.422;14.912;2023-04-06T14:27:53;4.95;;;2.40;;
66626;SDS011;53498;50.422;14.912;2023-04-06T14:30:19;4.13;;;2.80;;
66626;SDS011;53498;50.422;14.912;2023-04-06T14:32:44;4.25;;;2.60;;
66626;SDS011;53498;50.422;14.912;2023-04-06T14:35:10;2.92;;;2.22;;
66626;SDS011;53498;50.422;14.912;2023-04-06T14:37:35;2.33;;;2.13;;
66626;SDS011;53498;50.422;14.912;2023-04-06T14:40:02;3.88;;;2.28;;
66626;SDS011;53498;50.422;14.912;2023-04-06T14:42:28;3.10;;;1.95;;
66626;SDS011;53498;50.422;14.912;2023-04-06T14:44:54;2.67;;;2.30;;
66626;SDS011;53498;50.422;14.912;2023-04-06T14:47:20;3.67;;;2.35;;
66626;SDS011;53498;50.422;14.912;2023-04-06T14:49:47;2.75;;;2.15;;
66626;SDS011;53498;50.422;14.912;2023-04-06T14:52:15;3.55;;;2.42;;
66626;SDS011;53498;50.422;14.912;2023-04-06T14:54:41;2.75;;;2.42;;
66626;SDS011;53498;50.422;14.912;2023-04-06T14:57:09;2.65;;;2.45;;
66626;SDS011;53498;50.422;14.912;2023-04-06T14:59:35;2.67;;;2.47;;
66626;SDS011;53498;50.422;14.912;2023-04-06T15:02:01;2.67;;;2.47;;
66626;SDS011;53498;50.422;14.912;2023-04-06T15:04:28;2.63;;;2.42;;
66626;SDS011;53498;50.422;14.912;2023-04-06T15:06:55;3.75;;;2.60;;
66626;SDS011;53498;50.422;14.912;2023-04-06T15:09:21;3.92;;;2.80;;
66626;SDS011;53498;50.422;14.912;2023-04-06T15:11:46;3.53;;;2.40;;
66626;SDS011;53498;50.422;14.912;2023-04-06T15:14:12;5.45;;;2.75;;
66626;SDS011;53498;50.422;14.912;2023-04-06T15:16:37;4.65;;;2.88;;
66626;SDS011;53498;50.422;14.912;2023-04-06T15:19:03;2.85;;;2.55;;
66626;SDS011;53498;50.422;14.912;2023-04-06T15:21:28;4.05;;;2.88;;
66626;SDS011;53498;50.422;14.912;2023-04-06T15:23:55;3.85;;;3.00;;
66626;SDS011;53498;50.422;14.912;2023-04-06T15:26:21;4.72;;;2.95;;
66626;SDS011;53498;50.422;14.912;2023-04-06T15:28:47;3.10;;;2.65;;
66626;SDS011;53498;50.422;14.912;2023-04-06T15:31:13;4.30;;;3.03;;
66626;SDS011;53498;50.422;14.912;2023-04-06T15:33:40;3.05;;;2.70;;
66626;SDS011;53498;50.422;14.912;2023-04-06T15:36:21;3.72;;;2.95;;
66626;SDS011;53498;50.422;14.912;2023-04-06T15:38:50;4.10;;;2.50;;
66626;SDS011;53498;50.422;14.912;2023-04-06T15:41:16;6.00;;;3.25;;
66626;SDS011;53498;50.422;14.912;2023-04-06T15:46:32;4.18;;;3.20;;
66626;SDS011;53498;50.422;14.912;2023-04-06T15:48:58;3.85;;;3.10;;
66626;SDS011;53498;50.422;14.912;2023-04-06T15:51:23;4.13;;;3.65;;
66626;SDS011;53498;50.422;14.912;2023-04-06T15:53:49;5.68;;;3.35;;
66626;SDS011;53498;50.422;14.912;2023-04-06T15:56:14;3.47;;;2.78;;
66626;SDS011;53498;50.422;14.912;2023-04-06T15:58:40;3.70;;;3.30;;
66626;SDS011;53498;50.422;14.912;2023-04-06T16:01:13;3.75;;;3.13;;
66626;SDS011;53498;50.422;14.912;2023-04-06T16:03:39;5.78;;;3.35;;
66626;SDS011;53498;50.422;14.912;2023-04-06T16:06:08;4.40;;;3.47;;
66626;SDS011;53498;50.422;14.912;2023-04-06T16:08:34;6.35;;;4.32;;
66626;SDS011;53498;50.422;14.912;2023-04-06T16:11:00;4.68;;;3.33;;
66626;SDS011;53498;50.422;14.912;2023-04-06T16:13:26;3.47;;;3.17;;
66626;SDS011;53498;50.422;14.912;2023-04-06T16:15:51;3.03;;;2.72;;
66626;SDS011;53498;50.422;14.912;2023-04-06T16:18:19;3.95;;;3.17;;
66626;SDS011;53498;50.422;14.912;2023-04-06T16:20:44;3.45;;;3.10;;
66626;SDS011;53498;50.422;14.912;2023-04-06T16:23:10;3.90;;;2.92;;
66626;SDS011;53498;50.422;14.912;2023-04-06T16:25:37;4.40;;;3.45;;
66626;SDS011;53498;50.422;14.912;2023-04-06T16:28:03;5.35;;;3.47;;
66626;SDS011;53498;50.422;14.912;2023-04-06T16:30:29;3.30;;;3.00;;
66626;SDS011;53498;50.422;14.912;2023-04-06T16:32:55;3.92;;;3.22;;
66626;SDS011;53498;50.422;14.912;2023-04-06T16:35:21;4.55;;;2.78;;
66626;SDS011;53498;50.422;14.912;2023-04-06T16:37:50;5.32;;;3.25;;
66626;SDS011;53498;50.422;14.912;2023-04-06T16:40:15;5.45;;;3.55;;
66626;SDS011;53498;50.422;14.912;2023-04-06T16:42:42;4.38;;;3.40;;
66626;SDS011;53498;50.422;14.912;2023-04-06T16:45:08;4.10;;;3.10;;
66626;SDS011;53498;50.422;14.912;2023-04-06T16:47:35;9.05;;;3.85;;
66626;SDS011;53498;50.422;14.912;2023-04-06T16:50:01;5.35;;;3.83;;
66626;SDS011;53498;50.422;14.912;2023-04-06T16:52:27;5.18;;;3.35;;
66626;SDS011;53498;50.422;14.912;2023-04-06T16:54:52;4.55;;;3.28;;
66626;SDS011;53498;50.422;14.912;2023-04-06T16:57:18;4.82;;;3.40;;
66626;SDS011;53498;50.422;14.912;2023-04-06T16:59:44;4.47;;;3.00;;
66626;SDS011;53498;50.422;14.912;2023-04-06T17:02:13;7.05;;;3.70;;
66626;SDS011;53498;50.422;14.912;2023-04-06T17:04:38;5.22;;;3.63;;
66626;SDS011;53498;50.422;14.912;2023-04-06T17:07:04;4.13;;;3.40;;
66626;SDS011;53498;50.422;14.912;2023-04-06T17:09:30;7.53;;;4.05;;
66626;SDS011;53498;50.422;14.912;2023-04-06T17:11:57;5.20;;;3.97;;
66626;SDS011;53498;50.422;14.912;2023-04-06T17:14:22;5.57;;;3.97;;
66626;SDS011;53498;50.422;14.912;2023-04-06T17:16:49;8.05;;;3.95;;
66626;SDS011;53498;50.422;14.912;2023-04-06T17:19:14;4.95;;;3.80;;
66626;SDS011;53498;50.422;14.912;2023-04-06T17:21:40;5.30;;;3.70;;
66626;SDS011;53498;50.422;14.912;2023-04-06T17:24:06;8.38;;;3.97;;
66626;SDS011;53498;50.422;14.912;2023-04-06T17:26:33;6.05;;;4.57;;
66626;SDS011;53498;50.422;14.912;2023-04-06T17:28:59;6.88;;;4.00;;
66626;SDS011;53498;50.422;14.912;2023-04-06T17:31:25;10.82;;;5.13;;
66626;SDS011;53498;50.422;14.912;2023-04-06T17:33:51;5.60;;;3.92;;
66626;SDS011;53498;50.422;14.912;2023-04-06T17:36:17;6.32;;;4.32;;
66626;SDS011;53498;50.422;14.912;2023-04-06T17:38:44;5.65;;;3.78;;
66626;SDS011;53498;50.422;14.912;2023-04-06T17:41:11;4.68;;;3.90;;
66626;SDS011;53498;50.422;14.912;2023-04-06T17:43:37;5.55;;;4.35;;
66626;SDS011;53498;50.422;14.912;2023-04-06T17:46:03;5.90;;;4.05;;
66626;SDS011;53498;50.422;14.912;2023-04-06T17:48:30;4.78;;;3.60;;
66626;SDS011;53498;50.422;14.912;2023-04-06T17:50:56;4.45;;;3.72;;
66626;SDS011;53498;50.422;14.912;2023-04-06T17:53:22;5.95;;;3.88;;
66626;SDS011;53498;50.422;14.912;2023-04-06T17:55:48;5.57;;;4.03;;
66626;SDS011;53498;50.422;14.912;2023-04-06T17:58:14;6.10;;;3.90;;
66626;SDS011;53498;50.422;14.912;2023-04-06T18:00:40;5.97;;;3.97;;
66626;SDS011;53498;50.422;14.912;2023-04-06T18:03:05;5.25;;;4.53;;
66626;SDS011;53498;50.422;14.912;2023-04-06T18:05:32;7.75;;;5.15;;
66626;SDS011;53498;50.422;14.912;2023-04-06T18:07:57;6.95;;;4.60;;
66626;SDS011;53498;50.422;14.912;2023-04-06T18:10:23;7.07;;;4.22;;
66626;SDS011;53498;50.422;14.912;2023-04-06T18:12:49;6.85;;;4.40;;
66626;SDS011;53498;50.422;14.912;2023-04-06T18:15:15;6.50;;;4.18;;
66626;SDS011;53498;50.422;14.912;2023-04-06T18:17:42;6.53;;;4.72;;
66626;SDS011;53498;50.422;14.912;2023-04-06T18:20:09;6.72;;;4.80;;
66626;SDS011;53498;50.422;14.912;2023-04-06T18:22:35;6.43;;;4.68;;
66626;SDS011;53498;50.422;14.912;2023-04-06T18:25:07;7.03;;;4.88;;
66626;SDS011;53498;50.422;14.912;2023-04-06T18:27:33;6.32;;;4.45;;
66626;SDS011;53498;50.422;14.912;2023-04-06T18:30:00;8.68;;;4.65;;
66626;SDS011;53498;50.422;14.912;2023-04-06T18:32:26;7.57;;;4.93;;
66626;SDS011;53498;50.422;14.912;2023-04-06T18:34:57;8.82;;;4.85;;
66626;SDS011;53498;50.422;14.912;2023-04-06T18:37:24;7.78;;;5.32;;
66626;SDS011;53498;50.422;14.912;2023-04-06T18:39:50;7.30;;;5.65;;
66626;SDS011;53498;50.422;14.912;2023-04-06T18:42:18;8.95;;;5.35;;
66626;SDS011;53498;50.422;14.912;2023-04-06T18:44:44;6.80;;;5.03;;
66626;SDS011;53498;50.422;14.912;2023-04-06T18:47:10;11.13;;;5.55;;
66626;SDS011;53498;50.422;14.912;2023-04-06T18:49:36;9.15;;;5.57;;
66626;SDS011;53498;50.422;14.912;2023-04-06T18:52:05;7.95;;;5.78;;
66626;SDS011;53498;50.422;14.912;2023-04-06T18:54:32;8.40;;;5.90;;
66626;SDS011;53498;50.422;14.912;2023-04-06T18:56:57;9.02;;;7.55;;
66626;SDS011;53498;50.422;14.912;2023-04-06T18:59:23;10.70;;;6.80;;
66626;SDS011;53498;50.422;14.912;2023-04-06T19:01:51;12.60;;;6.57;;
66626;SDS011;53498;50.422;14.912;2023-04-06T19:04:21;9.32;;;5.75;;
66626;SDS011;53498;50.422;14.912;2023-04-06T19:06:46;7.10;;;4.70;;
66626;SDS011;53498;50.422;14.912;2023-04-06T19:09:12;6.20;;;4.93;;
66626;SDS011;53498;50.422;14.912;2023-04-06T19:11:38;8.02;;;5.85;;
66626;SDS011;53498;50.422;14.912;2023-04-06T19:14:04;7.13;;;5.25;;
66626;SDS011;53498;50.422;14.912;2023-04-06T19:16:30;11.02;;;5.63;;
66626;SDS011;53498;50.422;14.912;2023-04-06T19:18:56;8.40;;;5.57;;
66626;SDS011;53498;50.422;14.912;2023-04-06T19:21:24;9.90;;;5.72;;
66626;SDS011;53498;50.422;14.912;2023-04-06T19:23:51;8.32;;;6.30;;
66626;SDS011;53498;50.422;14.912;2023-04-06T19:26:19;13.00;;;7.45;;
66626;SDS011;53498;50.422;14.912;2023-04-06T19:28:46;12.70;;;7.07;;
66626;SDS011;53498;50.422;14.912;2023-04-06T19:31:13;11.02;;;8.50;;
66626;SDS011;53498;50.422;14.912;2023-04-06T19:33:47;11.98;;;8.85;;
66626;SDS011;53498;50.422;14.912;2023-04-06T19:36:13;12.02;;;8.77;;
66626;SDS011;53498;50.422;14.912;2023-04-06T19:38:40;12.57;;;9.23;;
66626;SDS011;53498;50.422;14.912;2023-04-06T19:41:06;11.70;;;8.85;;
66626;SDS011;53498;50.422;14.912;2023-04-06T19:43:32;14.23;;;9.00;;
66626;SDS011;53498;50.422;14.912;2023-04-06T19:45:58;18.85;;;10.93;;
66626;SDS011;53498;50.422;14.912;2023-04-06T19:48:24;14.30;;;8.88;;
66626;SDS011;53498;50.422;14.912;2023-04-06T19:50:52;13.48;;;8.43;;
66626;SDS011;53498;50.422;14.912;2023-04-06T19:53:19;13.25;;;9.40;;
66626;SDS011;53498;50.422;14.912;2023-04-06T19:55:45;14.23;;;9.30;;
66626;SDS011;53498;50.422;14.912;2023-04-06T19:58:11;12.98;;;8.80;;
66626;SDS011;53498;50.422;14.912;2023-04-06T20:00:37;15.75;;;9.07;;
66626;SDS011;53498;50.422;14.912;2023-04-06T20:03:03;13.27;;;9.18;;
66626;SDS011;53498;50.422;14.912;2023-04-06T20:05:29;16.63;;;9.77;;
66626;SDS011;53498;50.422;14.912;2023-04-06T20:07:55;13.13;;;8.57;;
66626;SDS011;53498;50.422;14.912;2023-04-06T20:10:20;12.15;;;9.40;;
66626;SDS011;53498;50.422;14.912;2023-04-06T20:12:46;17.02;;;10.48;;
66626;SDS011;53498;50.422;14.912;2023-04-06T20:15:12;18.50;;;10.13;;
66626;SDS011;53498;50.422;14.912;2023-04-06T20:17:38;21.73;;;11.45;;
66626;SDS011;53498;50.422;14.912;2023-04-06T20:20:04;19.42;;;11.60;;
66626;SDS011;53498;50.422;14.912;2023-04-06T20:22:30;19.25;;;12.02;;
66626;SDS011;53498;50.422;14.912;2023-04-06T20:27:31;25.95;;;14.70;;
66626;SDS011;53498;50.422;14.912;2023-04-06T20:29:56;28.90;;;16.58;;
66626;SDS011;53498;50.422;14.912;2023-04-06T20:32:22;25.25;;;17.10;;
66626;SDS011;53498;50.422;14.912;2023-04-06T20:34:48;25.33;;;14.27;;
66626;SDS011;53498;50.422;14.912;2023-04-06T20:37:15;27.17;;;14.90;;
66626;SDS011;53498;50.422;14.912;2023-04-06T20:39:41;27.55;;;15.40;;
66626;SDS011;53498;50.422;14.912;2023-04-06T20:42:07;23.85;;;14.50;;
66626;SDS011;53498;50.422;14.912;2023-04-06T20:44:33;28.92;;;16.30;;
66626;SDS011;53498;50.422;14.912;2023-04-06T20:46:59;27.08;;;17.95;;
66626;SDS011;53498;50.422;14.912;2023-04-06T20:49:25;27.63;;;14.75;;
66626;SDS011;53498;50.422;14.912;2023-04-06T20:51:51;23.27;;;13.48;;
66626;SDS011;53498;50.422;14.912;2023-04-06T20:54:16;23.27;;;13.77;;
66626;SDS011;53498;50.422;14.912;2023-04-06T20:56:42;26.25;;;14.88;;
66626;SDS011;53498;50.422;14.912;2023-04-06T20:59:08;24.02;;;13.90;;
66626;SDS011;53498;50.422;14.912;2023-04-06T21:01:34;28.73;;;15.05;;
66626;SDS011;53498;50.422;14.912;2023-04-06T21:03:59;24.50;;;14.75;;
66626;SDS011;53498;50.422;14.912;2023-04-06T21:06:25;25.88;;;13.85;;
66626;SDS011;53498;50.422;14.912;2023-04-06T21:08:52;26.13;;;15.68;;
66626;SDS011;53498;50.422;14.912;2023-04-06T21:11:17;29.83;;;16.33;;
66626;SDS011;53498;50.422;14.912;2023-04-06T21:13:43;32.15;;;15.45;;
66626;SDS011;53498;50.422;14.912;2023-04-06T21:16:09;26.00;;;13.75;;
66626;SDS011;53498;50.422;14.912;2023-04-06T21:18:35;27.42;;;14.75;;
66626;SDS011;53498;50.422;14.912;2023-04-06T21:21:01;25.75;;;14.68;;
66626;SDS011;53498;50.422;14.912;2023-04-06T21:23:26;25.20;;;14.02;;
66626;SDS011;53498;50.422;14.912;2023-04-06T21:25:52;20.00;;;11.90;;
66626;SDS011;53498;50.422;14.912;2023-04-06T21:28:21;24.35;;;13.52;;
66626;SDS011;53498;50.422;14.912;2023-04-06T21:30:53;24.73;;;13.48;;
66626;SDS011;53498;50.422;14.912;2023-04-06T21:33:19;21.98;;;12.90;;
66626;SDS011;53498;50.422;14.912;2023-04-06T21:35:46;23.40;;;12.52;;
66626;SDS011;53498;50.422;14.912;2023-04-06T21:38:11;22.75;;;13.60;;
66626;SDS011;53498;50.422;14.912;2023-04-06T21:40:37;21.60;;;12.10;;
66626;SDS011;53498;50.422;14.912;2023-04-06T21:43:03;21.15;;;12.52;;
66626;SDS011;53498;50.422;14.912;2023-04-06T21:45:29;22.98;;;13.43;;
66626;SDS011;53498;50.422;14.912;2023-04-06T21:47:55;20.00;;;11.68;;
66626;SDS011;53498;50.422;14.912;2023-04-06T21:50:20;24.17;;;12.43;;
66626;SDS011;53498;50.422;14.912;2023-04-06T21:52:46;15.65;;;10.65;;
66626;SDS011;53498;50.422;14.912;2023-04-06T21:55:12;15.30;;;10.65;;
66626;SDS011;53498;50.422;14.912;2023-04-06T21:57:37;17.48;;;10.50;;
66626;SDS011;53498;50.422;14.912;2023-04-06T22:00:03;19.58;;;11.95;;
66626;SDS011;53498;50.422;14.912;2023-04-06T22:02:34;16.80;;;10.40;;
66626;SDS011;53498;50.422;14.912;2023-04-06T22:05:02;21.45;;;11.50;;
66626;SDS011;53498;50.422;14.912;2023-04-06T22:07:28;17.92;;;10.98;;
66626;SDS011;53498;50.422;14.912;2023-04-06T22:09:53;17.90;;;10.57;;
66626;SDS011;53498;50.422;14.912;2023-04-06T22:12:19;21.38;;;11.23;;
66626;SDS011;53498;50.422;14.912;2023-04-06T22:14:45;16.70;;;10.43;;
66626;SDS011;53498;50.422;14.912;2023-04-06T22:17:10;17.20;;;10.77;;
66626;SDS011;53498;50.422;14.912;2023-04-06T22:19:36;17.77;;;11.15;;
66626;SDS011;53498;50.422;14.912;2023-04-06T22:22:02;22.50;;;11.70;;
66626;SDS011;53498;50.422;14.912;2023-04-06T22:24:28;16.83;;;10.98;;
66626;SDS011;53498;50.422;14.912;2023-04-06T22:26:53;19.83;;;11.35;;
66626;SDS011;53498;50.422;14.912;2023-04-06T22:29:19;24.38;;;11.43;;
66626;SDS011;53498;50.422;14.912;2023-04-06T22:31:45;18.25;;;11.60;;
66626;SDS011;53498;50.422;14.912;2023-04-06T22:34:10;16.35;;;10.60;;
66626;SDS011;53498;50.422;14.912;2023-04-06T22:36:36;18.02;;;11.40;;
66626;SDS011;53498;50.422;14.912;2023-04-06T22:39:01;18.95;;;10.85;;
66626;SDS011;53498;50.422;14.912;2023-04-06T22:41:27;17.63;;;10.65;;
66626;SDS011;53498;50.422;14.912;2023-04-06T22:43:54;17.13;;;9.95;;
66626;SDS011;53498;50.422;14.912;2023-04-06T22:46:19;17.70;;;11.32;;
66626;SDS011;53498;50.422;14.912;2023-04-06T22:48:46;19.08;;;11.55;;
66626;SDS011;53498;50.422;14.912;2023-04-06T22:51:12;21.08;;;12.27;;
66626;SDS011;53498;50.422;14.912;2023-04-06T22:53:37;19.67;;;11.68;;
66626;SDS011;53498;50.422;14.912;2023-04-06T22:56:03;21.20;;;11.23;;
66626;SDS011;53498;50.422;14.912;2023-04-06T22:58:29;23.13;;;12.32;;
66626;SDS011;53498;50.422;14.912;2023-04-06T23:00:55;18.67;;;11.45;;
66626;SDS011;53498;50.422;14.912;2023-04-06T23:03:22;15.73;;;11.45;;
66626;SDS011;53498;50.422;14.912;2023-04-06T23:05:47;15.48;;;10.57;;
66626;SDS011;53498;50.422;14.912;2023-04-06T23:08:13;15.40;;;11.00;;
66626;SDS011;53498;50.422;14.912;2023-04-06T23:10:38;15.57;;;10.48;;
66626;SDS011;53498;50.422;14.912;2023-04-06T23:13:06;20.55;;;11.68;;
66626;SDS011;53498;50.422;14.912;2023-04-06T23:15:32;17.73;;;10.38;;
66626;SDS011;53498;50.422;14.912;2023-04-06T23:17:58;18.45;;;11.25;;
66626;SDS011;53498;50.422;14.912;2023-04-06T23:20:23;15.30;;;10.48;;
66626;SDS011;53498;50.422;14.912;2023-04-06T23:22:49;19.40;;;11.20;;
66626;SDS011;53498;50.422;14.912;2023-04-06T23:25:15;18.27;;;9.65;;
66626;SDS011;53498;50.422;14.912;2023-04-06T23:27:40;18.42;;;10.00;;
66626;SDS011;53498;50.422;14.912;2023-04-06T23:30:06;18.73;;;9.50;;
66626;SDS011;53498;50.422;14.912;2023-04-06T23:32:32;15.63;;;9.77;;
66626;SDS011;53498;50.422;14.912;2023-04-06T23:34:57;14.90;;;8.70;;
66626;SDS011;53498;50.422;14.912;2023-04-06T23:37:23;12.65;;;8.65;;
66626;SDS011;53498;50.422;14.912;2023-04-06T23:39:51;13.32;;;10.00;;
66626;SDS011;53498;50.422;14.912;2023-04-06T23:42:17;14.27;;;8.63;;
66626;SDS011;53498;50.422;14.912;2023-04-06T23:44:42;15.32;;;8.82;;
66626;SDS011;53498;50.422;14.912;2023-04-06T23:47:08;12.80;;;8.82;;
66626;SDS011;53498;50.422;14.912;2023-04-06T23:49:34;19.30;;;9.52;;
66626;SDS011;53498;50.422;14.912;2023-04-06T23:52:00;12.77;;;7.75;;
66626;SDS011;53498;50.422;14.912;2023-04-06T23:54:25;13.48;;;9.35;;
66626;SDS011;53498;50.422;14.912;2023-04-06T23:56:51;13.57;;;8.55;;
66626;SDS011;53498;50.422;14.912;2023-04-06T23:59:17;13.88;;;9.18;;
